createdAt,value
2022-09-25T00:01:15.884Z,99.06
2022-09-25T00:03:49.278Z,98.92
2022-09-25T00:06:28.455Z,99.20
2022-09-25T00:09:05.872Z,98.93
2022-09-25T00:11:39.206Z,98.83
2022-09-25T00:14:11.918Z,98.08
2022-09-25T00:16:45.112Z,97.99
2022-09-25T00:19:41.351Z,97.92
2022-09-25T00:22:13.756Z,98.03
2022-09-25T00:24:46.212Z,98.15
2022-09-25T00:27:20.532Z,97.66
2022-09-25T00:29:53.621Z,97.60
2022-09-25T00:32:26.417Z,97.50
2022-09-25T00:34:58.928Z,97.56
2022-09-25T00:37:31.437Z,97.77
2022-09-25T00:40:06.736Z,97.63
2022-09-25T00:42:39.195Z,97.54
2022-09-25T00:45:22.296Z,97.58
2022-09-25T00:48:12.439Z,97.59
2022-09-25T00:50:54.073Z,97.48
2022-09-25T00:53:37.902Z,97.56
2022-09-25T00:56:11.569Z,97.81
2022-09-25T00:58:44.067Z,97.79
2022-09-25T01:01:17.460Z,97.85
2022-09-25T01:03:51.034Z,97.89
2022-09-25T01:06:23.496Z,98.00
2022-09-25T01:08:56.412Z,98.13
2022-09-25T01:11:30.013Z,98.20
2022-09-25T01:14:06.096Z,98.37
2022-09-25T01:16:55.741Z,98.29
2022-09-25T01:20:10.569Z,98.25
2022-09-25T01:22:54.050Z,98.48
2022-09-25T01:25:45.161Z,98.58
2022-09-25T01:28:29.668Z,98.75
2022-09-25T01:31:12.406Z,98.69
2022-09-25T01:33:49.363Z,98.61
2022-09-25T01:36:36.290Z,98.80
2022-09-25T01:39:20.635Z,98.78
2022-09-25T01:42:04.585Z,98.71
2022-09-25T01:44:45.099Z,98.80
2022-09-25T01:47:22.486Z,98.86
2022-09-25T01:50:01.941Z,98.92
2022-09-25T01:52:42.495Z,99.18
2022-09-25T01:55:38.721Z,99.41
2022-09-25T01:58:36.418Z,99.70
2022-09-25T02:01:21.416Z,100.00
2022-09-25T02:04:00.418Z,100.00
2022-09-25T02:06:33.283Z,100.00
2022-09-25T02:09:32.838Z,100.00
2022-09-25T02:12:10.413Z,100.00
2022-09-25T02:15:08.670Z,100.00
2022-09-25T02:18:22.191Z,100.00
2022-09-25T02:21:40.456Z,100.00
2022-09-25T02:24:18.833Z,100.00
2022-09-25T02:26:52.172Z,100.00
2022-09-25T02:29:27.379Z,100.00
2022-09-25T02:32:23.006Z,100.00
2022-09-25T02:34:56.482Z,100.00
2022-09-25T02:37:29.298Z,100.00
2022-09-25T02:40:03.003Z,100.00
2022-09-25T02:42:51.605Z,100.00
2022-09-25T02:45:44.786Z,100.00
2022-09-25T02:48:53.712Z,100.00
2022-09-25T02:51:59.560Z,100.00
2022-09-25T02:54:44.282Z,100.00
2022-09-25T02:57:50.121Z,100.00
2022-09-25T03:00:23.843Z,100.00
2022-09-25T03:03:00.580Z,100.00
2022-09-25T03:05:33.175Z,100.00
2022-09-25T03:08:25.061Z,100.00
2022-09-25T03:10:59.380Z,100.00
2022-09-25T03:13:34.523Z,100.00
2022-09-25T03:16:22.186Z,100.00
2022-09-25T03:18:56.112Z,100.00
2022-09-25T03:21:29.920Z,100.00
2022-09-25T03:24:02.774Z,100.00
2022-09-25T03:26:35.997Z,100.00
2022-09-25T03:29:08.674Z,100.00
2022-09-25T03:31:42.833Z,100.00
2022-09-25T03:34:17.544Z,100.00
2022-09-25T03:36:51.228Z,100.00
2022-09-25T03:39:24.625Z,100.00
2022-09-25T03:41:57.296Z,100.00
2022-09-25T03:44:29.826Z,100.00
2022-09-25T03:47:02.170Z,100.00
2022-09-25T03:49:34.616Z,100.00
2022-09-25T03:52:08.583Z,100.00
2022-09-25T03:54:41.668Z,100.00
2022-09-25T03:57:15.219Z,100.00
2022-09-25T03:59:47.812Z,100.00
2022-09-25T04:02:20.220Z,100.00
2022-09-25T04:04:54.492Z,100.00
2022-09-25T04:07:28.451Z,100.00
2022-09-25T04:10:01.027Z,100.00
2022-09-25T04:12:35.656Z,100.00
2022-09-25T04:15:10.708Z,100.00
2022-09-25T04:17:43.730Z,100.00
2022-09-25T04:20:16.507Z,100.00
2022-09-25T04:22:49.082Z,100.00
2022-09-25T04:25:24.515Z,100.00
2022-09-25T04:27:58.306Z,100.00
2022-09-25T04:30:31.764Z,100.00
2022-09-25T04:33:22.923Z,100.00
2022-09-25T04:35:56.556Z,97.76
2022-09-25T04:38:30.898Z,95.66
2022-09-25T04:41:03.517Z,92.68
2022-09-25T04:43:37.036Z,90.70
2022-09-25T04:46:16.732Z,88.89
2022-09-25T04:48:56.208Z,88.03
2022-09-25T04:51:28.836Z,86.29
2022-09-25T04:54:01.712Z,83.53
2022-09-25T04:56:35.886Z,80.73
2022-09-25T04:59:08.527Z,79.91
2022-09-25T05:01:42.464Z,79.64
2022-09-25T05:04:16.394Z,77.57
2022-09-25T05:06:49.465Z,77.42
2022-09-25T05:09:21.943Z,77.23
2022-09-25T05:11:55.579Z,75.98
2022-09-25T05:14:32.166Z,74.95
2022-09-25T05:17:06.534Z,75.35
2022-09-25T05:19:39.731Z,75.14
2022-09-25T05:22:12.815Z,73.49
2022-09-25T05:24:46.238Z,72.52
2022-09-25T05:27:21.648Z,72.66
2022-09-25T05:29:54.782Z,71.19
2022-09-25T05:32:27.298Z,71.05
2022-09-25T05:35:00.505Z,71.05
2022-09-25T05:37:34.169Z,69.81
2022-09-25T05:40:08.274Z,70.04
2022-09-25T05:42:41.108Z,67.73
2022-09-25T05:45:15.952Z,66.03
2022-09-25T05:47:48.427Z,66.19
2022-09-25T05:50:21.098Z,66.94
2022-09-25T05:52:59.214Z,66.12
2022-09-25T05:55:32.281Z,65.60
2022-09-25T05:58:06.505Z,63.67
2022-09-25T06:00:40.495Z,62.83
2022-09-25T06:03:13.984Z,63.16
2022-09-25T06:05:46.886Z,62.96
2022-09-25T06:08:20.104Z,62.91
2022-09-25T06:10:56.083Z,62.81
2022-09-25T06:13:30.394Z,63.33
2022-09-25T06:16:06.927Z,61.19
2022-09-25T06:18:39.849Z,59.85
2022-09-25T06:21:13.659Z,59.59
2022-09-25T06:23:46.914Z,58.77
2022-09-25T06:26:19.863Z,57.76
2022-09-25T06:28:57.616Z,57.49
2022-09-25T06:31:29.598Z,55.32
2022-09-25T06:34:02.875Z,54.57
2022-09-25T06:36:35.267Z,55.82
2022-09-25T06:39:08.847Z,55.51
2022-09-25T06:41:42.266Z,53.78
2022-09-25T06:44:16.538Z,53.39
2022-09-25T06:46:54.753Z,51.74
2022-09-25T06:49:27.714Z,52.57
2022-09-25T06:52:01.424Z,51.51
2022-09-25T06:54:34.117Z,51.13
2022-09-25T06:57:08.111Z,52.30
2022-09-25T06:59:40.990Z,50.54
2022-09-25T07:02:32.325Z,48.98
2022-09-25T07:05:06.287Z,47.97
2022-09-25T07:07:39.428Z,47.58
2022-09-25T07:10:12.630Z,47.54
2022-09-25T07:12:47.482Z,50.18
2022-09-25T07:15:20.302Z,50.90
2022-09-25T07:17:53.821Z,50.38
2022-09-25T07:20:27.564Z,49.44
2022-09-25T07:23:04.531Z,48.62
2022-09-25T07:25:38.723Z,46.95
2022-09-25T07:28:13.185Z,47.04
2022-09-25T07:30:46.968Z,47.15
2022-09-25T07:33:20.287Z,46.82
2022-09-25T07:35:54.672Z,46.71
2022-09-25T07:38:27.481Z,44.01
2022-09-25T07:41:00.908Z,44.01
2022-09-25T07:43:38.075Z,43.72
2022-09-25T07:46:10.513Z,43.25
2022-09-25T07:48:44.056Z,42.55
2022-09-25T07:51:17.264Z,42.98
2022-09-25T07:53:50.518Z,43.17
2022-09-25T07:56:24.698Z,41.98
2022-09-25T07:58:57.059Z,42.27
2022-09-25T08:01:30.736Z,42.27
2022-09-25T08:04:03.416Z,43.13
2022-09-25T08:06:38.529Z,40.86
2022-09-25T08:09:12.383Z,40.50
2022-09-25T08:11:45.276Z,40.11
2022-09-25T08:14:21.179Z,39.21
2022-09-25T08:16:54.805Z,39.95
2022-09-25T08:19:28.660Z,41.81
2022-09-25T08:22:02.164Z,39.76
2022-09-25T08:24:34.635Z,41.04
2022-09-25T08:27:08.101Z,41.74
2022-09-25T08:29:41.174Z,40.32
2022-09-25T08:32:14.205Z,40.03
2022-09-25T08:34:48.256Z,40.02
2022-09-25T08:37:22.325Z,38.68
2022-09-25T08:39:54.842Z,37.76
2022-09-25T08:42:36.720Z,38.77
2022-09-25T08:45:30.970Z,37.97
2022-09-25T08:48:21.073Z,36.19
2022-09-25T08:50:54.203Z,37.66
2022-09-25T08:53:27.017Z,38.58
2022-09-25T08:56:17.284Z,39.01
2022-09-25T08:59:12.313Z,38.19
2022-09-25T09:01:49.976Z,39.94
2022-09-25T09:04:36.131Z,36.43
2022-09-25T09:07:28.389Z,34.67
2022-09-25T09:10:03.761Z,34.62
2022-09-25T09:12:50.705Z,36.73
2022-09-25T09:15:48.610Z,36.06
2022-09-25T09:18:26.530Z,36.42
2022-09-25T09:21:09.958Z,38.19
2022-09-25T09:24:06.353Z,39.48
2022-09-25T09:26:56.226Z,37.59
2022-09-25T09:30:05.940Z,36.11
2022-09-25T09:32:43.444Z,37.04
2022-09-25T09:35:42.058Z,37.20
2022-09-25T09:38:34.609Z,38.93
2022-09-25T09:41:58.588Z,38.93
2022-09-25T09:44:54.555Z,37.93
2022-09-25T09:48:01.086Z,38.23
2022-09-25T09:50:53.322Z,38.30
2022-09-25T09:53:57.453Z,40.31
2022-09-25T09:56:33.177Z,39.92
2022-09-25T09:59:27.870Z,42.17
2022-09-25T10:02:16.405Z,43.10
2022-09-25T10:04:49.408Z,41.47
2022-09-25T10:07:22.978Z,40.35
2022-09-25T10:09:57.199Z,38.72
2022-09-25T10:12:34.852Z,39.03
2022-09-25T10:15:11.396Z,39.35
2022-09-25T10:17:44.705Z,39.54
2022-09-25T10:20:23.729Z,39.20
2022-09-25T10:22:56.791Z,40.05
2022-09-25T10:25:40.752Z,39.21
2022-09-25T10:28:32.985Z,38.07
2022-09-25T10:31:06.653Z,37.80
2022-09-25T10:33:39.746Z,37.80
2022-09-25T10:36:12.752Z,36.83
2022-09-25T10:38:50.587Z,36.82
2022-09-25T10:41:25.261Z,33.86
2022-09-25T10:44:01.080Z,32.66
2022-09-25T10:46:52.943Z,33.15
2022-09-25T10:49:45.759Z,35.80
2022-09-25T10:52:22.635Z,35.80
2022-09-25T10:55:26.200Z,36.74
2022-09-25T10:58:06.613Z,37.79
2022-09-25T11:00:55.916Z,37.38
2022-09-25T11:03:36.828Z,38.80
2022-09-25T11:06:14.071Z,38.13
2022-09-25T11:08:50.371Z,40.25
2022-09-25T11:11:28.220Z,38.55
2022-09-25T11:14:03.560Z,37.84
2022-09-25T11:16:53.237Z,36.40
2022-09-25T11:19:32.296Z,35.63
2022-09-25T11:22:28.145Z,37.34
2022-09-25T11:25:17.748Z,37.78
2022-09-25T11:28:01.197Z,36.18
2022-09-25T11:30:42.144Z,34.87
2022-09-25T11:33:35.995Z,35.98
2022-09-25T11:36:20.267Z,35.51
2022-09-25T11:39:21.863Z,35.42
2022-09-25T11:42:02.864Z,35.87
2022-09-25T11:45:04.087Z,34.14
2022-09-25T11:47:52.911Z,33.32
2022-09-25T11:50:31.950Z,33.56
2022-09-25T11:53:37.859Z,34.68
2022-09-25T11:56:42.905Z,36.29
2022-09-25T11:59:33.140Z,36.75
2022-09-25T12:02:41.072Z,35.89
2022-09-25T12:05:51.683Z,36.54
2022-09-25T12:08:42.810Z,38.00
2022-09-25T12:11:28.916Z,37.61
2022-09-25T12:14:07.185Z,38.32
2022-09-25T12:17:04.255Z,40.86
2022-09-25T12:20:01.505Z,41.72
2022-09-25T12:23:01.072Z,41.04
2022-09-25T12:25:53.566Z,42.49
2022-09-25T12:28:41.144Z,42.73
2022-09-25T12:31:39.704Z,42.21
2022-09-25T12:34:38.392Z,43.57
2022-09-25T12:37:38.889Z,44.35
2022-09-25T12:40:29.788Z,44.29
2022-09-25T12:43:24.434Z,44.95
2022-09-25T12:46:28.969Z,45.53
2022-09-25T12:49:24.536Z,43.82
2022-09-25T12:52:01.535Z,44.53
2022-09-25T12:54:59.544Z,44.15
2022-09-25T12:57:46.030Z,44.23
2022-09-25T13:00:30.591Z,44.07
2022-09-25T13:03:29.121Z,43.72
2022-09-25T13:06:31.500Z,44.32
2022-09-25T13:09:17.844Z,45.04
2022-09-25T13:12:19.075Z,45.08
2022-09-25T13:15:02.125Z,45.23
2022-09-25T13:17:37.804Z,45.55
2022-09-25T13:20:35.355Z,46.21
2022-09-25T13:23:20.720Z,47.79
2022-09-25T13:26:00.323Z,46.67
2022-09-25T13:29:05.736Z,46.23
2022-09-25T13:31:40.984Z,45.80
2022-09-25T13:34:35.023Z,46.40
2022-09-25T13:37:10.089Z,46.39
2022-09-25T13:40:05.553Z,46.05
2022-09-25T13:42:44.271Z,46.75
2022-09-25T13:45:41.932Z,47.89
2022-09-25T13:48:36.613Z,47.62
2022-09-25T13:51:26.378Z,47.23
2022-09-25T13:54:10.770Z,47.41
2022-09-25T13:56:48.082Z,47.86
2022-09-25T13:59:44.113Z,47.69
2022-09-25T14:02:43.754Z,47.66
2022-09-25T14:05:19.483Z,47.85
2022-09-25T14:07:55.774Z,47.96
2022-09-25T14:10:29.123Z,48.10
2022-09-25T14:15:45.328Z,48.48
2022-09-25T14:18:24.769Z,47.89
2022-09-25T14:21:01.146Z,47.79
2022-09-25T14:23:34.282Z,49.38
2022-09-25T14:26:22.312Z,50.38
2022-09-25T14:28:57.394Z,49.78
2022-09-25T14:31:45.169Z,49.13
2022-09-25T14:34:24.259Z,48.53
2022-09-25T14:37:39.904Z,48.50
2022-09-25T14:40:38.343Z,47.98
2022-09-25T14:46:16.767Z,48.36
2022-09-25T14:49:06.413Z,48.63
2022-09-25T14:51:47.539Z,49.42
2022-09-25T14:54:23.273Z,49.88
2022-09-25T14:56:58.471Z,50.25
2022-09-25T14:59:44.721Z,50.54
2022-09-25T15:02:26.621Z,50.65
2022-09-25T15:05:02.342Z,50.90
2022-09-25T15:07:38.592Z,51.19
2022-09-25T15:10:40.701Z,51.28
2022-09-25T15:13:22.971Z,51.68
2022-09-25T15:16:15.900Z,51.66
2022-09-25T15:18:54.452Z,51.88
2022-09-25T15:21:31.423Z,52.50
2022-09-25T15:24:10.615Z,52.35
2022-09-25T15:26:53.403Z,52.19
2022-09-25T15:29:26.378Z,52.51
2022-09-25T15:31:59.981Z,53.02
2022-09-25T15:34:34.300Z,53.19
2022-09-25T15:37:29.601Z,53.87
2022-09-25T15:40:45.417Z,53.96
2022-09-25T15:43:18.761Z,54.49
2022-09-25T15:46:13.852Z,54.94
2022-09-25T15:48:58.144Z,55.10
2022-09-25T15:51:34.744Z,55.30
2022-09-25T15:54:36.010Z,55.62
2022-09-25T15:57:13.656Z,55.79
2022-09-25T16:00:09.348Z,56.13
2022-09-25T16:03:22.786Z,56.57
2022-09-25T16:08:39.886Z,57.68
2022-09-25T16:11:25.264Z,58.16
2022-09-25T16:14:29.943Z,58.52
2022-09-25T16:17:03.298Z,58.50
2022-09-25T16:19:36.665Z,58.99
2022-09-25T16:25:01.737Z,59.38
2022-09-25T16:27:35.579Z,59.94
2022-09-25T16:30:22.686Z,60.59
2022-09-25T16:33:21.527Z,60.56
2022-09-25T16:36:16.242Z,61.23
2022-09-25T16:38:34.087Z,62.51
2022-09-25T16:41:26.094Z,61.91
2022-09-25T16:44:21.335Z,63.63
2022-09-25T16:47:02.251Z,65.03
2022-09-25T16:49:35.780Z,65.53
2022-09-25T16:52:09.753Z,65.83
2022-09-25T16:54:43.422Z,65.66
2022-09-25T16:57:17.458Z,66.23
2022-09-25T17:00:13.715Z,66.33
2022-09-25T17:02:47.799Z,67.08
2022-09-25T17:05:27.107Z,68.62
2022-09-25T17:08:06.834Z,68.57
2022-09-25T17:10:40.848Z,68.71
2022-09-25T17:13:15.378Z,68.22
2022-09-25T17:15:48.970Z,68.55
2022-09-25T17:18:23.379Z,68.24
2022-09-25T17:20:56.466Z,70.24
2022-09-25T17:23:29.438Z,70.24
2022-09-25T17:26:07.359Z,69.41
2022-09-25T17:28:40.218Z,69.64
2022-09-25T17:31:20.483Z,69.96
2022-09-25T17:33:54.618Z,70.72
2022-09-25T17:36:28.362Z,69.80
2022-09-25T17:39:01.111Z,68.96
2022-09-25T17:41:37.622Z,69.54
2022-09-25T17:44:23.739Z,69.73
2022-09-25T17:46:57.806Z,69.68
2022-09-25T17:49:31.035Z,69.49
2022-09-25T17:52:05.415Z,69.36
2022-09-25T17:54:41.689Z,68.72
2022-09-25T17:57:16.925Z,68.71
2022-09-25T17:59:54.181Z,68.94
2022-09-25T18:02:29.633Z,70.53
2022-09-25T18:05:03.143Z,71.36
2022-09-25T18:07:39.264Z,70.97
2022-09-25T18:10:13.326Z,70.74
2022-09-25T18:12:46.766Z,70.54
2022-09-25T18:15:19.736Z,70.93
2022-09-25T18:17:54.111Z,71.63
2022-09-25T18:20:44.998Z,71.57
2022-09-25T18:23:18.173Z,72.49
2022-09-25T18:25:51.124Z,72.05
2022-09-25T18:28:25.041Z,72.12
2022-09-25T18:30:59.042Z,72.46
2022-09-25T18:33:31.819Z,72.74
2022-09-25T18:36:06.126Z,72.75
2022-09-25T18:38:39.216Z,72.86
2022-09-25T18:41:16.335Z,73.20
2022-09-25T18:43:49.521Z,73.87
2022-09-25T18:46:22.237Z,73.69
2022-09-25T18:48:57.604Z,73.89
2022-09-25T18:51:32.109Z,74.41
2022-09-25T18:54:04.887Z,74.22
2022-09-25T18:56:39.235Z,74.22
2022-09-25T18:59:11.782Z,74.27
2022-09-25T19:01:44.504Z,74.59
2022-09-25T19:04:19.931Z,74.78
2022-09-25T19:06:53.666Z,74.93
2022-09-25T19:09:28.671Z,75.18
2022-09-25T19:12:01.892Z,75.55
2022-09-25T19:14:36.551Z,75.37
2022-09-25T19:17:10.311Z,75.17
2022-09-25T19:19:45.421Z,75.17
2022-09-25T19:22:20.068Z,74.97
2022-09-25T19:24:55.439Z,75.41
2022-09-25T19:27:30.010Z,75.27
2022-09-25T19:30:03.698Z,75.22
2022-09-25T19:32:36.858Z,75.27
2022-09-25T19:35:11.578Z,75.75
2022-09-25T19:37:45.243Z,75.50
2022-09-25T19:40:35.930Z,75.70
2022-09-25T19:43:09.763Z,75.61
2022-09-25T19:45:45.227Z,75.37
2022-09-25T19:48:18.384Z,75.49
2022-09-25T19:50:51.456Z,75.21
2022-09-25T19:53:25.628Z,75.23
2022-09-25T19:55:58.204Z,75.86
2022-09-25T19:58:32.472Z,75.98
2022-09-25T20:01:15.350Z,76.35
2022-09-25T20:03:47.885Z,77.71
2022-09-25T20:06:21.382Z,80.00
2022-09-25T20:09:15.090Z,81.74
2022-09-25T20:11:48.046Z,83.78
2022-09-25T20:14:22.027Z,85.84
2022-09-25T20:16:56.553Z,87.48
2022-09-25T20:19:28.731Z,88.95
2022-09-25T20:22:01.030Z,90.08
2022-09-25T20:24:34.634Z,91.04
2022-09-25T20:27:07.787Z,91.89
2022-09-25T20:29:40.346Z,93.04
2022-09-25T20:32:13.332Z,93.86
2022-09-25T20:34:46.943Z,94.41
2022-09-25T20:37:20.697Z,95.03
2022-09-25T20:39:54.312Z,95.63
2022-09-25T20:42:28.113Z,96.23
2022-09-25T20:45:01.663Z,97.22
2022-09-25T20:47:35.380Z,98.09
2022-09-25T20:50:09.501Z,98.49
2022-09-25T20:52:42.106Z,98.77
2022-09-25T20:55:16.329Z,98.97
2022-09-25T20:57:48.800Z,99.08
2022-09-25T21:00:22.443Z,99.19
2022-09-25T21:02:55.871Z,99.33
2022-09-25T21:05:28.598Z,99.51
2022-09-25T21:08:02.493Z,99.65
2022-09-25T21:10:40.265Z,99.68
2022-09-25T21:13:13.977Z,99.53
2022-09-25T21:15:46.815Z,99.42
2022-09-25T21:18:20.180Z,99.44
2022-09-25T21:20:53.475Z,99.57
2022-09-25T21:23:26.290Z,99.39
2022-09-25T21:26:12.487Z,99.31
2022-09-25T21:28:47.790Z,99.17
2022-09-25T21:31:27.990Z,99.02
2022-09-25T21:34:01.478Z,98.92
2022-09-25T21:36:34.475Z,98.89
2022-09-25T21:39:07.777Z,98.91
2022-09-25T21:41:41.772Z,98.66
2022-09-25T21:44:18.036Z,98.48
2022-09-25T21:46:50.846Z,98.48
2022-09-25T21:49:23.535Z,98.38
2022-09-25T21:51:57.407Z,98.74
2022-09-25T21:54:32.476Z,99.25
2022-09-25T21:57:04.967Z,99.50
2022-09-25T21:59:38.336Z,99.97
2022-09-25T22:02:11.110Z,100.00
2022-09-25T22:04:44.876Z,100.00
2022-09-25T22:07:18.200Z,100.00
2022-09-25T22:09:52.209Z,99.52
2022-09-25T22:12:24.937Z,98.66
2022-09-25T22:14:57.625Z,97.84
2022-09-25T22:17:31.328Z,97.13
2022-09-25T22:20:05.695Z,96.34
2022-09-25T22:22:38.842Z,95.72
2022-09-25T22:25:11.797Z,95.36
2022-09-25T22:27:44.974Z,94.72
2022-09-25T22:30:17.648Z,94.53
2022-09-25T22:32:50.859Z,94.26
2022-09-25T22:35:24.347Z,93.99
2022-09-25T22:37:57.018Z,93.66
2022-09-25T22:40:30.270Z,93.48
2022-09-25T22:43:03.633Z,93.40
2022-09-25T22:45:36.192Z,93.32
2022-09-25T22:48:08.958Z,93.07
2022-09-25T22:50:41.955Z,92.97
2022-09-25T22:53:14.398Z,92.67
2022-09-25T22:55:48.101Z,92.61
2022-09-25T22:58:20.715Z,92.76
2022-09-25T23:00:54.010Z,93.00
2022-09-25T23:03:27.497Z,92.81
2022-09-25T23:06:03.388Z,93.31
2022-09-25T23:08:36.390Z,94.64
2022-09-25T23:11:09.317Z,95.13
2022-09-25T23:13:42.566Z,95.61
2022-09-25T23:16:15.151Z,95.91
2022-09-25T23:18:48.996Z,96.19
2022-09-25T23:21:21.823Z,96.33
2022-09-25T23:24:00.729Z,96.30
2022-09-25T23:26:33.408Z,96.05
2022-09-25T23:29:07.503Z,96.05
2022-09-25T23:31:40.952Z,95.86
2022-09-25T23:34:13.623Z,95.80
2022-09-25T23:36:46.913Z,95.71
2022-09-25T23:39:21.213Z,95.81
2022-09-25T23:41:54.847Z,95.83
2022-09-25T23:44:27.361Z,96.05
2022-09-25T23:46:59.854Z,95.86
2022-09-25T23:49:32.769Z,96.08
2022-09-25T23:52:05.166Z,96.36
2022-09-25T23:54:41.370Z,96.00
2022-09-25T23:57:15.285Z,95.38
2022-09-25T23:59:47.804Z,94.71
